createdAt,value
2018-04-19T00:04:57.486Z,0.0
2018-04-19T00:15:11.609Z,0.0
2018-04-19T00:25:27.869Z,0.0
2018-04-19T00:35:43.337Z,0.0
2018-04-19T00:45:57.671Z,0.0
2018-04-19T00:56:09.603Z,0.0
2018-04-19T01:06:25.236Z,0.0
2018-04-19T01:16:38.996Z,0.0
2018-04-19T01:26:52.388Z,0.0
2018-04-19T01:37:06.488Z,0.0
2018-04-19T01:47:20.644Z,0.0
2018-04-19T01:57:35.396Z,0.0
2018-04-19T02:08:19.710Z,0.0
2018-04-19T02:18:32.981Z,0.0
2018-04-19T02:28:47.209Z,0.0
2018-04-19T02:39:01.596Z,0.0
2018-04-19T02:49:13.496Z,0.0
2018-04-19T02:59:27.756Z,0.0
2018-04-19T03:10:13.539Z,0.0
2018-04-19T03:20:58.507Z,0.0
2018-04-19T03:31:15.343Z,0.0
2018-04-19T03:41:29.824Z,0.0
2018-04-19T03:51:40.916Z,0.0
2018-04-19T04:01:55.886Z,4.0
2018-04-19T04:12:09.440Z,32.0
2018-04-19T04:22:23.541Z,124.0
2018-04-19T04:33:07.850Z,332.0
2018-04-19T04:43:55.087Z,632.0
2018-04-19T04:54:09.733Z,968.0
2018-04-19T05:04:24.042Z,1324.0
2018-04-19T05:14:37.763Z,1612.0
2018-04-19T05:25:04.147Z,2036.0
2018-04-19T05:35:18.362Z,2392.0
2018-04-19T05:45:33.053Z,2692.0
2018-04-19T05:56:17.339Z,2984.0
2018-04-19T06:06:31.694Z,3256.0
2018-04-19T06:18:18.322Z,3480.0
2018-04-19T06:28:32.642Z,3812.0
2018-04-19T06:38:47.165Z,4216.0
2018-04-19T06:49:32.405Z,4464.0
2018-04-19T06:59:52.759Z,10392.0
2018-04-19T07:10:26.296Z,12068.0
2018-04-19T07:20:51.097Z,16192.0
2018-04-19T07:31:02.751Z,18496.0
2018-04-19T07:41:17.872Z,20000.0
2018-04-19T07:51:32.763Z,23232.0
2018-04-19T08:01:44.662Z,27072.0
2018-04-19T08:12:12.430Z,31488.0
2018-04-19T08:33:17.874Z,34144.0
2018-04-19T08:43:31.850Z,40608.0
2018-04-19T08:53:46.487Z,43168.0
2018-04-19T09:04:01.746Z,49536.0
2018-04-19T09:14:15.568Z,49376.0
2018-04-19T09:24:29.848Z,49440.0
2018-04-19T09:34:41.291Z,54976.0
2018-04-19T09:44:55.819Z,54304.0
2018-04-19T09:55:09.671Z,61216.0
2018-04-19T10:05:22.313Z,61408.0
2018-04-19T10:37:20.103Z,58112.0
2018-04-19T10:47:34.094Z,62400.0
2018-04-19T10:57:48.397Z,64672.0
2018-04-19T11:08:51.138Z,64416.0
2018-04-19T11:19:02.592Z,60896.0
2018-04-19T11:29:47.453Z,64928.0
2018-04-19T11:40:42.228Z,62912.0
2018-04-19T11:51:15.131Z,61312.0
2018-04-19T12:02:19.446Z,64640.0
2018-04-19T12:13:15.033Z,66496.0
2018-04-19T12:23:54.476Z,61664.0
2018-04-19T12:34:22.828Z,62528.0
2018-04-19T12:44:54.491Z,57856.0
2018-04-19T12:55:28.905Z,57824.0
2018-04-19T13:05:54.696Z,56832.0
2018-04-19T13:27:14.824Z,46816.0
2018-04-19T13:38:00.476Z,49312.0
2018-04-19T13:48:37.957Z,21664.0
2018-04-19T13:58:49.692Z,20768.0
2018-04-19T14:09:04.330Z,20032.0
2018-04-19T14:19:24.501Z,20128.0
2018-04-19T14:29:36.419Z,20032.0
2018-04-19T14:40:33.674Z,39072.0
2018-04-19T15:01:03.677Z,22272.0
2018-04-19T15:11:29.842Z,18624.0
2018-04-19T15:22:03.652Z,18016.0
2018-04-19T15:34:31.636Z,12536.0
2018-04-19T15:44:57.080Z,13268.0
2018-04-19T15:55:08.710Z,9680.0
2018-04-19T16:05:53.699Z,5888.0
2018-04-19T16:16:17.828Z,6048.0
2018-04-19T16:26:34.786Z,4820.0
2018-04-19T16:37:21.430Z,3844.0
2018-04-19T16:47:39.430Z,3692.0
2018-04-19T16:57:53.237Z,4164.0
2018-04-19T17:08:18.023Z,4092.0
2018-04-19T17:18:30.759Z,3820.0
2018-04-19T17:28:44.947Z,3344.0
2018-04-19T17:38:58.723Z,2796.0
2018-04-19T17:49:13.288Z,2180.0
2018-04-19T17:59:59.122Z,1576.0
2018-04-19T18:10:13.320Z,1096.0
2018-04-19T18:20:27.498Z,668.0
2018-04-19T18:30:41.506Z,336.0
2018-04-19T18:40:57.441Z,124.0
2018-04-19T19:09:50.444Z,4.0
2018-04-19T19:20:47.327Z,0.0
2018-04-19T19:31:03.115Z,0.0
2018-04-19T20:06:59.727Z,0.0
2018-04-19T20:17:11.371Z,0.0
2018-04-19T20:27:25.291Z,0.0
2018-04-19T20:37:39.511Z,0.0
2018-04-19T20:47:53.984Z,0.0
2018-04-19T20:58:39.471Z,0.0
2018-04-19T21:08:53.648Z,0.0
2018-04-19T21:19:08.040Z,0.0
2018-04-19T21:29:22.796Z,0.0
2018-04-19T21:39:36.713Z,0.0
2018-04-19T21:50:21.109Z,0.0
2018-04-19T22:00:32.401Z,0.0
2018-04-19T22:10:46.908Z,0.0
2018-04-19T22:21:00.801Z,0.0
2018-04-19T22:31:15.140Z,0.0
2018-04-19T22:41:29.596Z,0.0
2018-04-19T22:51:41.565Z,0.0
2018-04-19T23:01:55.987Z,0.0
2018-04-19T23:12:10.361Z,0.0
2018-04-19T23:22:56.047Z,0.0
2018-04-19T23:33:07.796Z,0.0
2018-04-19T23:43:53.666Z,0.0
2018-04-19T23:54:08.650Z,0.0
